Time;durP1;ratioP1;P1;durP2;ratioP2;P2;SDS_P1;SDS_P2;PMS_P1;PMS_P2;Temp;Humidity;BMP_temperature;BMP_pressure;BME280_temperature;BME280_humidity;BME280_pressure;Samples;Min_cycle;Max_cycle;Signal;HPM_P1;HPM_P2
2022/11/09 00:01:43;;;;;;;46.63;24.02;;;;;;;4.13;93.86;101093.66;1744012;81;21127;-60
2022/11/09 00:04:12;;;;;;;45.52;23.92;;;;;;;4.09;93.92;101089.51;1743955;82;21115;-59
2022/11/09 00:06:41;;;;;;;42.93;21.70;;;;;;;4.06;93.94;101087.08;1744174;81;21123;-59
2022/11/09 00:09:10;;;;;;;39.83;22.13;;;;;;;4.05;93.88;101093.99;1744036;81;21171;-62
2022/11/09 00:11:40;;;;;;;45.17;23.35;;;;;;;4.03;93.91;101090.06;1743956;82;22113;-60
2022/11/09 00:14:15;;;;;;;44.23;22.60;;;;;;;4.04;93.91;101089.07;1743858;81;21206;-61
2022/11/09 00:16:44;;;;;;;41.80;22.65;;;;;;;4.04;93.88;101090.42;1743930;82;21119;-60
2022/11/09 00:19:14;;;;;;;45.98;23.27;;;;;;;4.03;93.91;101087.35;1743879;82;21118;-60
2022/11/09 00:21:42;;;;;;;46.63;23.20;;;;;;;3.98;93.86;101086.91;1744056;82;21127;-61
2022/11/09 00:24:11;;;;;;;40.45;21.12;;;;;;;3.96;93.83;101092.97;1743964;82;21159;-62
2022/11/09 00:26:41;;;;;;;42.50;22.52;;;;;;;3.94;93.79;101092.25;1743958;82;21548;-60
2022/11/09 00:29:10;;;;;;;42.03;22.30;;;;;;;3.96;93.88;101092.97;1733277;82;21219;-61
2022/11/09 00:31:39;;;;;;;42.15;21.40;;;;;;;3.94;93.92;101094.96;1744095;82;21540;-60
2022/11/09 00:34:08;;;;;;;37.75;21.15;;;;;;;3.96;94.02;101097.03;1743912;82;21142;-61
2022/11/09 00:36:37;;;;;;;37.17;20.60;;;;;;;3.95;94.01;101096.67;1743874;81;21097;-60
2022/11/09 00:39:08;;;;;;;40.12;19.65;;;;;;;3.99;94.06;101097.26;1743776;82;21131;-60
2022/11/09 00:41:37;;;;;;;36.35;20.57;;;;;;;4.02;93.96;101103.76;1743900;81;21566;-61
2022/11/09 00:44:06;;;;;;;38.75;20.68;;;;;;;3.98;93.77;101103.18;1744076;81;21182;-59
2022/11/09 00:46:35;;;;;;;40.20;21.07;;;;;;;3.94;93.74;101096.31;1743962;81;21179;-60
2022/11/09 00:49:06;;;;;;;35.30;19.87;;;;;;;3.89;93.73;101108.04;1743985;81;21155;-60
2022/11/09 00:51:34;;;;;;;33.73;18.90;;;;;;;3.87;93.78;101106.46;1743790;82;21155;-60
2022/11/09 00:54:06;;;;;;;36.80;18.48;;;;;;;3.84;93.83;101107.59;1743814;81;21147;-62
2022/11/09 00:56:36;;;;;;;35.65;18.10;;;;;;;3.83;93.77;101109.45;1743979;81;21586;-60
2022/11/09 00:59:07;;;;;;;34.45;18.60;;;;;;;3.84;93.84;101104.88;1743792;82;21562;-62
2022/11/09 01:01:36;;;;;;;32.48;18.12;;;;;;;3.83;93.80;101106.73;1733692;82;21574;-60
2022/11/09 01:04:06;;;;;;;38.48;19.80;;;;;;;3.82;93.84;101096.03;1743971;81;21131;-60
2022/11/09 01:06:35;;;;;;;32.65;18.07;;;;;;;3.83;93.89;101099.09;1743854;82;21163;-61
2022/11/09 01:09:05;;;;;;;32.70;18.70;;;;;;;3.83;93.84;101094.53;1743998;82;21542;-58
2022/11/09 01:11:37;;;;;;;36.42;18.70;;;;;;;3.82;93.76;101105.02;1701928;83;21159;-60
2022/11/09 01:14:09;;;;;;;30.30;17.37;;;;;;;3.84;93.79;101100.81;1645805;86;21413;-58
2022/11/09 01:16:39;;;;;;;30.32;17.02;;;;;;;3.85;93.81;101097.11;1646368;87;21158;-59
2022/11/09 01:19:08;;;;;;;26.75;15.32;;;;;;;3.87;93.85;101096.47;1646458;87;21190;-62
2022/11/09 01:21:38;;;;;;;31.73;16.93;;;;;;;3.89;93.85;101093.63;1646259;87;21619;-60
2022/11/09 01:24:08;;;;;;;29.15;15.45;;;;;;;3.89;93.77;101098.55;1646470;87;21174;-61
2022/11/09 01:26:37;;;;;;;33.08;17.32;;;;;;;3.88;93.64;101098.69;1646475;87;21135;-61
2022/11/09 01:29:06;;;;;;;30.02;16.77;;;;;;;3.86;93.61;101099.33;1646279;87;21127;-59
2022/11/09 01:31:36;;;;;;;27.40;16.30;;;;;;;3.85;93.69;101097.11;1646070;87;21630;-60
2022/11/09 01:34:05;;;;;;;31.12;16.25;;;;;;;3.83;93.73;101095.89;1646163;86;21150;-60
2022/11/09 01:36:34;;;;;;;33.02;17.02;;;;;;;3.84;93.83;101106.23;1680921;84;21163;-60
2022/11/09 01:39:02;;;;;;;30.68;17.20;;;;;;;3.87;93.82;101096.47;1659701;85;21107;-59
2022/11/09 01:41:32;;;;;;;32.67;17.25;;;;;;;3.89;93.72;101099.91;1743847;81;21580;-60
2022/11/09 01:44:10;;;;;;;28.47;16.32;;;;;;;3.88;93.59;101104.11;1743836;82;21567;-62
2022/11/09 01:46:52;;;;;;;35.80;16.87;;;;;;;3.82;93.56;101109.59;1743778;81;21528;-61
2022/11/09 01:49:42;;;;;;;33.58;18.07;;;;;;;3.79;93.59;101108.00;1743756;82;21633;-61
2022/11/09 01:52:22;;;;;;;32.60;16.60;;;;;;;3.79;93.67;101111.22;1743756;82;21208;-60
2022/11/09 01:55:02;;;;;;;29.30;15.45;;;;;;;3.79;93.71;101113.42;1701787;84;21099;-59
2022/11/09 01:57:39;;;;;;;27.60;15.68;;;;;;;3.81;93.80;101114.64;1700314;84;21977;-60
2022/11/09 02:00:14;;;;;;;30.45;15.88;;;;;;;3.79;93.71;101117.98;1696983;84;21158;-60
2022/11/09 02:02:49;;;;;;;30.80;16.93;;;;;;;3.76;93.66;101116.91;1701655;84;21603;-60
2022/11/09 02:05:22;;;;;;;26.50;14.58;;;;;;;3.71;93.67;101113.75;1700390;84;21142;-59
2022/11/09 02:07:52;;;;;;;25.27;14.05;;;;;;;3.70;93.71;101108.83;1701868;84;21131;-61
2022/11/09 02:10:36;;;;;;;25.27;14.38;;;;;;;3.71;93.71;101111.89;1701750;84;21656;-60
2022/11/09 02:13:06;;;;;;;26.40;14.78;;;;;;;3.72;93.69;101110.04;1729005;82;21182;-60
2022/11/09 02:15:38;;;;;;;25.85;14.35;;;;;;;3.71;93.67;101113.25;1754187;81;21594;-61
2022/11/09 02:18:11;;;;;;;24.30;13.32;;;;;;;3.70;93.68;101114.74;1753717;81;21122;-59
2022/11/09 02:20:49;;;;;;;25.20;13.90;;;;;;;3.72;93.68;101115.46;1753754;80;21760;-62
2022/11/09 02:23:18;;;;;;;25.50;14.15;;;;;;;3.68;93.53;101113.52;1754146;82;21158;-61
2022/11/09 02:26:03;;;;;;;28.10;15.05;;;;;;;3.66;93.57;101118.72;1753909;82;21193;-60
2022/11/09 02:28:32;;;;;;;30.68;15.35;;;;;;;3.67;93.68;101120.44;1753886;82;21106;-61
2022/11/09 02:31:02;;;;;;;29.48;15.43;;;;;;;3.68;93.71;101113.52;1753848;81;21534;-60
2022/11/09 02:33:43;;;;;;;29.82;14.95;;;;;;;3.73;93.68;101118.53;1711641;82;21162;-61
2022/11/09 02:36:13;;;;;;;32.60;17.00;;;;;;;3.74;93.59;101110.27;1754063;80;21148;-60
2022/11/09 02:38:42;;;;;;;29.42;16.65;;;;;;;3.76;93.48;101119.12;1753930;82;21170;-59
2022/11/09 02:41:12;;;;;;;34.30;17.73;;;;;;;3.73;93.28;101118.03;1753862;82;21126;-60
2022/11/09 02:43:40;;;;;;;32.95;17.40;;;;;;;3.72;93.19;101114.11;1753862;82;21636;-60
2022/11/09 02:46:09;;;;;;;29.80;16.25;;;;;;;3.69;93.17;101113.02;1754164;82;21174;-59
2022/11/09 02:48:38;;;;;;;30.30;16.90;;;;;;;3.68;93.19;101120.30;1754177;82;21110;-61
2022/11/09 02:51:08;;;;;;;30.60;16.60;;;;;;;3.66;93.09;101116.01;1753877;82;21616;-59
2022/11/09 02:53:37;;;;;;;30.90;16.93;;;;;;;3.62;92.99;101117.27;1754062;82;21160;-59
2022/11/09 02:56:06;;;;;;;28.42;16.05;;;;;;;3.57;92.96;101123.59;1753982;82;21422;-60
2022/11/09 02:58:35;;;;;;;28.55;15.18;;;;;;;3.52;92.97;101118.58;1755242;82;21170;-61
2022/11/09 03:01:05;;;;;;;28.05;14.90;;;;;;;3.49;92.97;101117.00;1757059;82;21567;-60
2022/11/09 03:03:36;;;;;;;26.97;14.50;;;;;;;3.47;92.99;101119.48;1757465;81;21107;-61
2022/11/09 03:06:05;;;;;;;30.15;16.20;;;;;;;3.45;92.97;101113.34;1757136;81;21612;-59
2022/11/09 03:08:35;;;;;;;30.20;16.75;;;;;;;3.46;93.08;101117.77;1757168;82;21201;-60
2022/11/09 03:11:05;;;;;;;31.15;16.50;;;;;;;3.47;93.12;101118.13;1757382;81;21173;-61
2022/11/09 03:13:35;;;;;;;31.57;17.30;;;;;;;3.46;93.14;101120.47;1757471;80;21628;-59
2022/11/09 03:16:08;;;;;;;28.65;15.75;;;;;;;3.46;93.17;101122.69;1757386;82;21155;-61
2022/11/09 03:18:39;;;;;;;30.30;15.00;;;;;;;3.47;93.18;101113.56;1757157;82;21142;-60
2022/11/09 03:21:10;;;;;;;27.42;15.70;;;;;;;3.50;93.08;101116.50;1707136;84;21560;-61
2022/11/09 03:23:39;;;;;;;29.05;15.25;;;;;;;3.49;93.01;101115.64;1634735;88;21586;-61
2022/11/09 03:26:09;;;;;;;27.70;15.90;;;;;;;3.48;93.04;101112.57;1707127;84;21139;-60
2022/11/09 03:28:38;;;;;;;25.48;14.78;;;;;;;3.47;92.98;101116.77;1634603;88;21127;-60
2022/11/09 03:31:07;;;;;;;26.65;14.80;;;;;;;3.43;92.93;101107.20;1707373;84;21163;-60
2022/11/09 03:33:36;;;;;;;27.55;15.30;;;;;;;3.42;92.96;101117.67;1634648;88;21226;-61
2022/11/09 03:36:06;;;;;;;34.55;15.60;;;;;;;3.41;92.89;101118.16;1707175;84;21924;-61
2022/11/09 03:38:34;;;;;;;28.50;15.28;;;;;;;3.38;92.90;101117.08;1707135;84;21155;-61
2022/11/09 03:41:05;;;;;;;28.47;15.40;;;;;;;3.38;92.96;101119.79;1634532;88;21158;-61
2022/11/09 03:43:35;;;;;;;29.37;14.85;;;;;;;3.38;92.90;101122.99;1707381;84;21123;-60
2022/11/09 03:46:05;;;;;;;27.65;14.38;;;;;;;3.35;92.79;101120.05;1670020;85;21554;-60
2022/11/09 03:48:34;;;;;;;26.15;13.62;;;;;;;3.30;92.74;101120.95;1703468;84;21171;-59
2022/11/09 03:51:03;;;;;;;27.05;14.85;;;;;;;3.30;92.74;101124.16;1692591;85;21129;-60
2022/11/09 03:53:32;;;;;;;24.95;14.43;;;;;;;3.28;92.70;101113.95;1703130;84;21596;-61
2022/11/09 03:56:01;;;;;;;24.52;14.33;;;;;;;3.27;92.75;101113.59;1692376;85;21153;-62
2022/11/09 03:58:29;;;;;;;24.72;14.03;;;;;;;3.28;92.81;101118.02;1702308;84;21129;-61
2022/11/09 04:00:58;;;;;;;24.50;14.50;;;;;;;3.26;92.72;101108.67;1687275;85;21182;-61
2022/11/09 04:03:27;;;;;;;25.68;14.13;;;;;;;3.26;92.62;101114.08;1752071;82;21286;-60
2022/11/09 04:06:00;;;;;;;33.63;16.52;;;;;;;3.26;92.47;101116.80;1752127;80;21183;-59
2022/11/09 04:08:29;;;;;;;31.25;17.73;;;;;;;3.24;92.48;101120.09;1752124;81;21115;-61
2022/11/09 04:10:59;;;;;;;30.17;17.75;;;;;;;3.21;92.47;101118.16;1751773;80;21170;-61
2022/11/09 04:13:28;;;;;;;30.00;16.73;;;;;;;3.15;92.41;101113.62;1752053;82;21118;-59
2022/11/09 04:15:58;;;;;;;33.73;17.62;;;;;;;3.14;92.52;101119.17;1751777;81;21337;-60
2022/11/09 04:18:27;;;;;;;30.95;16.55;;;;;;;3.14;92.52;101123.23;1751728;81;21596;-60
2022/11/09 04:20:58;;;;;;;44.13;24.15;;;;;;;3.14;92.64;101121.39;1752106;82;21087;-61
2022/11/09 04:23:27;;;;;;;59.90;32.10;;;;;;;3.17;92.70;101119.77;1751734;82;21115;-62
2022/11/09 04:25:58;;;;;;;44.73;24.70;;;;;;;3.19;92.76;101126.41;1752055;82;21178;-60
2022/11/09 04:28:27;;;;;;;42.50;22.93;;;;;;;3.19;92.81;101129.98;1751917;82;21146;-60
2022/11/09 04:31:01;;;;;;;45.03;22.67;;;;;;;3.16;92.77;101128.88;1752062;81;21127;-61
2022/11/09 04:33:30;;;;;;;56.77;24.98;;;;;;;3.17;92.86;101129.25;1751873;81;21119;-60
2022/11/09 04:36:06;;;;;;;48.13;26.57;;;;;;;3.17;92.88;101133.31;1751810;81;21087;-61
2022/11/09 04:38:36;;;;;;;47.15;26.50;;;;;;;3.20;92.96;101137.60;1751861;82;21130;-61
2022/11/09 04:41:07;;;;;;;48.65;23.22;;;;;;;3.21;92.97;101139.32;1752033;81;21119;-61
2022/11/09 04:43:35;;;;;;;47.95;23.35;;;;;;;3.24;93.00;101147.67;1751978;82;21170;-61
2022/11/09 04:46:05;;;;;;;45.38;23.18;;;;;;;3.24;93.00;101144.97;1752010;81;21135;-61
2022/11/09 04:48:33;;;;;;;37.28;18.90;;;;;;;3.24;92.93;101144.97;1751835;81;21146;-60
2022/11/09 04:51:04;;;;;;;31.27;17.67;;;;;;;3.23;92.90;101145.95;1751926;81;21107;-59
2022/11/09 04:53:34;;;;;;;35.20;18.27;;;;;;;3.22;92.86;101147.80;1751784;82;21127;-59
2022/11/09 04:56:05;;;;;;;34.85;17.37;;;;;;;3.23;92.81;101156.79;1752058;81;21119;-62
2022/11/09 04:58:34;;;;;;;34.80;16.82;;;;;;;3.22;92.79;101157.78;1752652;81;21176;-60
2022/11/09 05:01:11;;;;;;;32.30;17.40;;;;;;;3.19;92.76;101156.20;1757062;80;21091;-62
2022/11/09 05:03:40;;;;;;;34.75;17.80;;;;;;;3.18;92.79;101165.30;1757125;81;21562;-59
2022/11/09 05:09:05;;;;;;;39.63;21.05;;;;;;;3.15;92.62;101169.14;1757125;82;21107;-61
2022/11/09 05:11:34;;;;;;;41.70;20.92;;;;;;;3.12;92.55;101165.84;1757127;82;21123;-61
2022/11/09 05:14:05;;;;;;;42.78;19.27;;;;;;;3.09;92.52;101173.72;1757147;81;21100;-62
2022/11/09 05:16:35;;;;;;;34.98;17.75;;;;;;;3.09;92.56;101185.05;1757182;82;21597;-60
2022/11/09 05:19:04;;;;;;;35.65;19.25;;;;;;;3.10;92.50;101184.06;1757463;82;21106;-61
2022/11/09 05:21:33;;;;;;;37.20;19.07;;;;;;;3.13;92.51;101193.27;1757376;81;21157;-61
2022/11/09 05:24:04;;;;;;;38.60;18.80;;;;;;;3.11;92.56;101184.42;1757143;82;21586;-60
2022/11/09 05:26:36;;;;;;;38.15;17.60;;;;;;;3.16;92.68;101195.72;1757315;80;21216;-59
2022/11/09 05:29:08;;;;;;;39.78;18.80;;;;;;;3.18;92.69;101197.80;1757148;82;21111;-61
2022/11/09 05:31:38;;;;;;;36.15;18.62;;;;;;;3.20;92.77;101195.83;1757187;81;21181;-60
2022/11/09 05:34:09;;;;;;;41.50;19.95;;;;;;;3.23;92.72;101198.77;1757044;82;21130;-60
2022/11/09 05:36:37;;;;;;;46.42;21.80;;;;;;;3.21;92.65;101206.16;1740309;82;21122;-60
2022/11/09 05:39:06;;;;;;;48.20;23.70;;;;;;;3.18;92.71;101205.92;1757360;82;21406;-62
2022/11/09 05:41:35;;;;;;;51.70;23.05;;;;;;;3.19;92.83;101213.06;1757251;82;21110;-60
2022/11/09 05:44:04;;;;;;;38.25;19.87;;;;;;;3.22;92.89;101211.45;1757392;81;21142;-61
2022/11/09 05:46:33;;;;;;;44.70;20.30;;;;;;;3.24;92.93;101214.88;1757449;82;21091;-59
2022/11/09 05:49:03;;;;;;;56.65;25.32;;;;;;;3.30;92.94;101222.52;1757061;82;22042;-60
2022/11/09 05:51:33;;;;;;;60.83;27.60;;;;;;;3.33;92.86;101220.04;1757063;82;21539;-60
2022/11/09 05:54:04;;;;;;;56.10;26.42;;;;;;;3.33;92.82;101217.33;1757483;82;21197;-59
2022/11/09 05:56:34;;;;;;;52.98;25.35;;;;;;;3.34;92.76;101225.33;1757043;82;21131;-60
2022/11/09 05:59:04;;;;;;;47.17;22.37;;;;;;;3.35;92.72;101225.69;1753998;82;21159;-59
2022/11/09 06:01:33;;;;;;;47.38;21.40;;;;;;;3.37;92.64;101231.84;1755583;82;21182;-62
2022/11/09 06:04:04;;;;;;;43.68;22.50;;;;;;;3.38;92.58;101224.08;1757182;81;21087;-61
2022/11/09 06:06:33;;;;;;;48.70;22.15;;;;;;;3.37;92.48;101234.55;1757059;81;21119;-59
2022/11/09 06:09:04;;;;;;;46.90;22.77;;;;;;;3.37;92.53;101229.13;1684187;84;21103;-61
2022/11/09 06:11:35;;;;;;;43.42;21.95;;;;;;;3.39;92.56;101234.42;1707336;84;21111;-60
2022/11/09 06:14:04;;;;;;;44.30;21.82;;;;;;;3.41;92.66;101231.94;1707213;84;21206;-61
2022/11/09 06:16:34;;;;;;;47.45;22.07;;;;;;;3.46;92.65;101239.18;1707005;84;21658;-60
2022/11/09 06:19:02;;;;;;;44.93;22.35;;;;;;;3.52;92.77;101231.52;1684040;84;21142;-59
2022/11/09 06:21:32;;;;;;;50.17;23.85;;;;;;;3.59;92.85;101240.83;1706933;84;21961;-60
2022/11/09 06:24:01;;;;;;;51.28;25.37;;;;;;;3.63;92.91;101236.86;1707143;84;21535;-60
2022/11/09 06:26:32;;;;;;;51.50;24.47;;;;;;;3.67;92.98;101242.38;1706994;84;21766;-60
2022/11/09 06:29:01;;;;;;;56.88;28.50;;;;;;;3.72;93.03;101239.64;1707042;84;21174;-61
2022/11/09 06:31:31;;;;;;;63.05;30.12;;;;;;;3.79;93.02;101245.38;1706955;84;21607;-60
2022/11/09 06:34:02;;;;;;;54.53;29.70;;;;;;;3.82;93.01;101243.77;1738389;82;21174;-61
2022/11/09 06:36:30;;;;;;;44.98;23.32;;;;;;;3.88;93.12;101245.94;1757161;82;21194;-62
2022/11/09 06:38:59;;;;;;;45.12;23.65;;;;;;;3.95;93.19;101247.65;1757190;82;21103;-60
2022/11/09 06:41:29;;;;;;;48.00;23.55;;;;;;;4.01;93.24;101250.68;1757185;82;21095;-62
2022/11/09 06:43:58;;;;;;;44.98;23.22;;;;;;;4.08;93.23;101244.22;1757197;82;21091;-62
2022/11/09 06:46:29;;;;;;;44.33;22.60;;;;;;;4.14;93.24;101251.31;1757339;82;21110;-61
2022/11/09 06:48:59;;;;;;;45.00;21.97;;;;;;;4.22;93.23;101252.49;1757493;82;21515;-62
2022/11/09 06:51:28;;;;;;;54.13;24.43;;;;;;;4.27;93.25;101244.30;1756989;82;21791;-61
2022/11/09 06:53:57;;;;;;;48.23;23.60;;;;;;;4.33;93.34;101246.47;1757165;81;21597;-60
2022/11/09 06:56:29;;;;;;;48.70;22.13;;;;;;;4.39;93.41;101245.06;1757107;81;21604;-62
2022/11/09 06:58:58;;;;;;;47.25;23.00;;;;;;;4.46;93.44;101243.52;1757082;82;21146;-61
2022/11/09 07:01:28;;;;;;;53.68;24.87;;;;;;;4.55;93.47;101249.52;1757025;82;21174;-61
2022/11/09 07:03:58;;;;;;;57.90;27.10;;;;;;;4.61;93.45;101242.17;1757013;80;21147;-62
2022/11/09 07:06:29;;;;;;;62.55;30.25;;;;;;;4.67;93.51;101243.47;1717104;82;21245;-60
2022/11/09 07:09:00;;;;;;;62.33;32.17;;;;;;;4.75;93.59;101243.13;1757233;82;21154;-61
2022/11/09 07:11:33;;;;;;;71.75;33.63;;;;;;;4.83;93.65;101237.50;1757187;81;21592;-58
2022/11/09 07:14:02;;;;;;;72.67;32.55;;;;;;;4.91;93.68;101238.52;1756972;81;21570;-58
2022/11/09 07:16:31;;;;;;;69.17;34.45;;;;;;;4.99;93.68;101235.09;1757029;82;21185;-58
2022/11/09 07:19:01;;;;;;;71.82;35.33;;;;;;;5.07;93.70;101236.60;1757122;81;21102;-58
2022/11/09 07:21:32;;;;;;;78.02;37.48;;;;;;;5.15;93.75;101237.25;1706878;84;21131;-58
2022/11/09 07:24:04;;;;;;;84.05;38.02;;;;;;;5.25;93.93;101237.64;1683933;84;21608;-58
2022/11/09 07:26:33;;;;;;;81.30;36.50;;;;;;;5.48;94.44;101233.27;1634533;88;21610;-58
2022/11/09 07:29:02;;;;;;;76.07;37.50;;;;;;;5.84;94.84;101240.66;1707043;84;21162;-58
2022/11/09 07:31:32;;;;;;;70.30;32.73;;;;;;;6.22;94.82;101232.94;1634317;88;21257;-58
2022/11/09 07:34:03;;;;;;;70.92;37.00;;;;;;;6.65;94.64;101233.69;1707109;84;21139;-58
2022/11/09 07:36:35;;;;;;;59.10;30.48;;;;;;;7.08;93.98;101232.12;1634329;88;21616;-57
2022/11/09 07:39:05;;;;;;;62.98;30.90;;;;;;;7.48;93.02;101233.04;1719122;82;21628;-60
2022/11/09 07:41:34;;;;;;;65.42;30.10;;;;;;;7.88;92.00;101228.44;1757068;82;21106;-58
2022/11/09 07:44:04;;;;;;;62.10;28.42;;;;;;;8.19;89.96;101238.86;1756945;82;21508;-59
2022/11/09 07:46:34;;;;;;;59.75;27.82;;;;;;;8.41;88.35;101241.06;1756997;82;21565;-58
2022/11/09 07:49:03;;;;;;;63.42;27.95;;;;;;;8.69;87.34;101235.41;1756977;82;21150;-57
2022/11/09 07:51:34;;;;;;;101.62;48.92;;;;;;;9.00;85.88;101238.41;1757090;82;21107;-58
2022/11/09 07:54:03;;;;;;;89.75;43.58;;;;;;;9.20;84.40;101238.48;1740618;82;21178;-57
2022/11/09 07:56:32;;;;;;;76.17;29.75;;;;;;;9.40;83.47;101239.02;1756997;82;21551;-58
2022/11/09 07:59:01;;;;;;;71.72;31.25;;;;;;;9.66;82.34;101238.34;1757273;82;21617;-59
2022/11/09 08:01:31;;;;;;;57.48;28.75;;;;;;;9.88;81.56;101242.80;1749261;81;21142;-58
2022/11/09 08:04:00;;;;;;;55.20;26.35;;;;;;;10.00;80.43;101237.31;1743945;82;21123;-57
2022/11/09 08:06:30;;;;;;;79.37;37.25;;;;;;;10.08;79.86;101234.56;1743511;82;21538;-59
2022/11/09 08:09:00;;;;;;;65.87;27.73;;;;;;;10.19;79.25;101238.30;1743692;82;21495;-59
2022/11/09 08:11:29;;;;;;;52.20;24.20;;;;;;;10.26;78.43;101234.38;1743917;81;21151;-59
2022/11/09 08:13:58;;;;;;;47.98;22.10;;;;;;;10.25;78.08;101236.78;1744004;82;21385;-58
2022/11/09 08:16:28;;;;;;;47.27;22.20;;;;;;;10.25;77.67;101237.63;1743774;81;21160;-58
2022/11/09 08:18:59;;;;;;;52.43;23.00;;;;;;;10.29;77.78;101231.30;1743134;81;21551;-57
2022/11/09 08:21:29;;;;;;;43.80;23.52;;;;;;;10.30;77.39;101239.34;1744164;81;21508;-59
2022/11/09 08:23:57;;;;;;;46.45;23.60;;;;;;;10.31;77.42;101234.20;1743972;82;21171;-58
2022/11/09 08:26:27;;;;;;;46.05;24.05;;;;;;;10.30;77.49;101228.89;1744141;81;21167;-57
2022/11/09 08:28:56;;;;;;;50.95;25.12;;;;;;;10.30;77.50;101236.59;1744051;82;21163;-58
2022/11/09 08:31:25;;;;;;;44.48;21.80;;;;;;;10.29;77.53;101231.30;1743968;81;21166;-58
2022/11/09 08:33:53;;;;;;;38.17;20.92;;;;;;;10.23;77.34;101227.38;1743797;82;21115;-57
2022/11/09 08:36:26;;;;;;;43.60;20.95;;;;;;;10.19;77.63;101228.72;1743967;82;21186;-57
2022/11/09 08:38:58;;;;;;;46.10;21.52;;;;;;;10.19;77.63;101231.45;1743993;82;21175;-57
2022/11/09 08:41:28;;;;;;;41.42;21.40;;;;;;;10.18;77.67;101225.64;1743742;82;21159;-57
2022/11/09 08:43:58;;;;;;;41.20;19.77;;;;;;;10.17;77.81;101228.04;1733481;82;21196;-57
2022/11/09 08:46:27;;;;;;;34.75;16.87;;;;;;;10.13;77.73;101221.20;1743960;82;21925;-57
2022/11/09 08:48:55;;;;;;;29.65;15.25;;;;;;;10.09;77.95;101217.10;1743813;82;21112;-57
2022/11/09 08:51:24;;;;;;;33.20;16.20;;;;;;;10.07;77.80;101220.02;1744084;82;21185;-58
2022/11/09 08:53:53;;;;;;;22.45;11.18;;;;;;;10.08;77.75;101216.77;1744038;82;21087;-58
2022/11/09 08:56:22;;;;;;;23.90;12.18;;;;;;;10.10;77.62;101212.82;1743824;81;21403;-58
2022/11/09 08:58:51;;;;;;;20.30;11.00;;;;;;;10.11;77.06;101209.56;1743712;82;21551;-57
2022/11/09 09:01:20;;;;;;;20.82;11.22;;;;;;;10.14;76.60;101214.70;1748807;81;21150;-58
2022/11/09 09:03:49;;;;;;;21.60;10.15;;;;;;;10.18;76.12;101211.95;1756998;80;21624;-59
2022/11/09 09:06:20;;;;;;;19.48;10.00;;;;;;;10.22;75.75;101216.59;1757022;82;21103;-57
2022/11/09 09:08:50;;;;;;;20.60;9.00;;;;;;;10.26;75.48;101213.84;1757521;82;21083;-58
2022/11/09 09:11:21;;;;;;;17.73;7.97;;;;;;;10.27;75.13;101213.66;1757029;82;21142;-61
2022/11/09 09:13:50;;;;;;;14.10;7.10;;;;;;;10.30;74.16;101216.56;1757286;82;21567;-58
2022/11/09 09:16:19;;;;;;;14.85;7.60;;;;;;;10.30;73.60;101208.34;1756856;82;21118;-58
2022/11/09 09:18:49;;;;;;;15.75;8.73;;;;;;;10.30;73.28;101205.09;1757025;82;21519;-59
2022/11/09 09:21:32;;;;;;;14.30;6.80;;;;;;;10.32;73.22;101210.39;1780301;80;21095;-60
2022/11/09 09:24:37;;;;;;;10.00;5.90;;;;;;;10.36;73.45;101209.87;1756942;82;21636;-59
2022/11/09 09:27:31;;;;;;;10.35;5.90;;;;;;;10.41;72.70;101196.52;1756659;82;21109;-61
2022/11/09 09:30:26;;;;;;;12.58;5.97;;;;;;;10.45;72.11;101197.88;1759569;80;21178;-61
2022/11/09 09:33:54;;;;;;;8.57;5.67;;;;;;;10.48;71.73;101202.15;1764967;80;21155;-60
2022/11/09 09:37:24;;;;;;;12.53;6.25;;;;;;;10.47;71.22;101198.55;1781312;80;21087;-61
2022/11/09 09:43:46;;;;;;;;;;;;;;;10.46;70.92;101190.00;1706044;83;21118;-59
2022/11/09 09:47:25;;;;;;;13.50;6.23;;;;;;;10.48;69.89;101190.67;1711110;83;20160;-60
2022/11/09 09:51:00;;;;;;;14.07;6.00;;;;;;;10.47;70.15;101187.59;1635041;86;21355;-59
2022/11/09 09:54:03;;;;;;;12.35;6.33;;;;;;;10.50;70.01;101186.90;1677142;84;21166;-60
2022/11/09 09:56:54;;;;;;;14.35;7.20;;;;;;;10.54;69.78;101182.77;1673781;84;21628;-61
2022/11/09 10:00:10;;;;;;;16.48;7.53;;;;;;;10.56;69.95;101173.85;1679695;84;21122;-61
2022/11/09 10:03:42;;;;;;;12.37;6.72;;;;;;;10.61;70.12;101172.28;1675373;84;21149;-61
2022/11/09 10:07:07;;;;;;;20.92;7.53;;;;;;;10.65;70.32;101175.52;1667876;84;21242;-60
2022/11/09 10:11:01;;;;;;;11.45;7.35;;;;;;;10.66;70.44;101175.34;1671752;84;21174;-61
2022/11/09 10:14:56;;;;;;;18.20;7.40;;;;;;;10.68;70.39;101169.16;1533326;93;21253;-60
2022/11/09 10:18:49;;;;;;;13.53;7.50;;;;;;;10.70;70.68;101170.36;1519385;94;21167;-60
2022/11/09 10:22:09;;;;;;;13.55;7.53;;;;;;;10.74;70.67;101171.70;1489288;95;21283;-59
2022/11/09 10:24:55;;;;;;;19.87;8.23;;;;;;;10.75;70.88;101172.04;1501045;94;21273;-63
2022/11/09 10:27:36;;;;;;;15.03;8.33;;;;;;;10.75;71.10;101165.19;1533303;92;21273;-61
2022/11/09 10:30:14;;;;;;;13.65;8.00;;;;;;;10.76;71.14;101153.19;1553605;92;21174;-63
2022/11/09 10:32:50;;;;;;;19.60;8.20;;;;;;;10.77;71.24;101156.27;1533099;93;21237;-61
2022/11/09 10:35:40;;;;;;;20.45;7.58;;;;;;;10.79;71.48;101163.27;1557971;92;21218;-64
2022/11/09 10:38:17;;;;;;;18.30;8.43;;;;;;;10.82;71.53;101162.06;1558453;92;21200;-64
2022/11/09 10:41:06;;;;;;;14.98;7.12;;;;;;;10.83;71.47;101151.95;1530373;93;21290;-63
2022/11/09 10:44:03;;;;;;;12.23;6.05;;;;;;;10.87;71.62;101147.80;1533609;93;21208;-62
2022/11/09 10:47:13;;;;;;;12.65;6.20;;;;;;;10.89;71.35;101147.97;1529953;93;21250;-63
2022/11/09 10:50:21;;;;;;;15.20;6.62;;;;;;;10.91;71.00;101141.78;1553439;89;21158;-63
2022/11/09 10:53:23;;;;;;;14.38;5.90;;;;;;;10.94;70.90;101141.42;1656046;85;21189;-63
2022/11/09 10:56:19;;;;;;;11.25;4.62;;;;;;;10.96;70.56;101142.09;1671190;85;21186;-63
2022/11/09 10:59:43;;;;;;;7.22;4.22;;;;;;;10.99;69.80;101138.13;1597914;89;21255;-63
2022/11/09 11:02:46;;;;;;;7.95;3.95;;;;;;;11.01;68.73;101136.05;1661705;85;21559;-64
2022/11/09 11:05:38;;;;;;;9.43;3.75;;;;;;;11.04;67.71;101135.69;1641780;86;21154;-64
2022/11/09 11:08:34;;;;;;;8.63;3.58;;;;;;;11.08;67.36;101133.80;1656344;86;21575;-65
2022/11/09 11:11:27;;;;;;;9.68;4.10;;;;;;;11.11;66.81;101126.58;1649759;86;21234;-64
2022/11/09 11:14:36;;;;;;;7.45;3.83;;;;;;;11.17;66.67;101132.37;1647709;86;21233;-63
2022/11/09 11:17:36;;;;;;;8.20;4.00;;;;;;;11.19;66.23;101130.29;1624806;86;21786;-63
2022/11/09 11:20:30;;;;;;;5.95;3.52;;;;;;;11.20;65.61;101129.25;1626626;86;21177;-63
2022/11/09 11:23:20;;;;;;;5.62;3.20;;;;;;;11.19;65.36;101122.92;1636255;86;21190;-62
2022/11/09 11:26:44;;;;;;;5.08;2.98;;;;;;;11.21;65.05;101129.59;1656750;86;21162;-62
2022/11/09 11:29:49;;;;;;;4.37;2.83;;;;;;;11.21;64.76;101126.84;1638669;86;21174;-63
2022/11/09 11:32:38;;;;;;;7.83;3.52;;;;;;;11.20;63.71;101121.87;1639404;86;21681;-64
2022/11/09 11:35:50;;;;;;;7.53;3.60;;;;;;;11.22;63.49;101121.70;1646263;86;21099;-63
2022/11/09 11:39:04;;;;;;;8.13;3.72;;;;;;;11.21;63.50;101126.33;1639255;86;21590;-63
2022/11/09 11:42:49;;;;;;;9.25;4.87;;;;;;;11.23;63.58;101117.91;1630830;86;21680;-63
2022/11/09 11:45:44;;;;;;;12.07;5.42;;;;;;;11.22;63.53;101119.80;1642027;86;21210;-63
2022/11/09 11:49:05;;;;;;;9.73;4.22;;;;;;;11.21;63.52;101114.50;1642045;86;21142;-62
2022/11/09 11:52:06;;;;;;;10.18;4.50;;;;;;;11.18;63.29;101112.98;1631538;86;21194;-63
2022/11/09 11:55:38;;;;;;;7.12;3.10;;;;;;;11.17;63.11;101109.05;1641904;86;21644;-62
2022/11/09 11:58:53;;;;;;;8.93;4.15;;;;;;;11.17;62.88;101104.94;1761045;80;21106;-62
2022/11/09 12:01:52;;;;;;;9.13;3.90;;;;;;;11.20;62.72;101105.94;1762751;80;21253;-64
2022/11/09 12:05:06;;;;;;;10.28;4.40;;;;;;;11.25;63.10;101110.35;1688002;83;21122;-64
2022/11/09 12:08:37;;;;;;;5.72;3.27;;;;;;;11.25;63.34;101099.38;1653788;86;21224;-63
2022/11/09 12:12:03;;;;;;;8.00;4.72;;;;;;;11.24;62.82;101102.64;1755932;79;21578;-64